Terminal Aerodrome Forecast
Issued by NWS

Home | Current Version | Previous Version | Text Only | Print | Product List | Glossary On
Versions: 1 2 3 4 5 6 7 8 9 10 11 12 13 14 15 16 17 18 19 20 21
009
FTUS42 KTAE 281720
TAFECP
TAF
KECP 281720Z 2818/2918 18010KT P6SM BKN040
     FM290000 23004KT P6SM SCT250
     FM290800 00000KT 1SM BR OVC007
     FM291400 11005KT P6SM SCT020=

USA.gov is the U.S. government's official web portal to all federal, state and local government web resources and services.